Time;durP1;ratioP1;P1;durP2;ratioP2;P2;SDS_P1;SDS_P2;PMS_P1;PMS_P2;Temp;Humidity;BMP_temperature;BMP_pressure;BME280_temperature;BME280_humidity;BME280_pressure;Samples;Min_cycle;Max_cycle;Signal;HPM_P1;HPM_P2
2021/10/03 00:00:48;;;;;;;45.92;21.85;;;;;;;3.85;77.17;100887.31;5050023;28;20139;-69
2021/10/03 00:03:18;;;;;;;51.92;23.23;;;;;;;3.84;77.28;100888.31;5050209;28;20052;-69
2021/10/03 00:05:46;;;;;;;46.45;23.40;;;;;;;3.82;77.58;100888.47;5050226;28;20044;-68
2021/10/03 00:08:12;;;;;;;46.35;22.33;;;;;;;3.80;77.18;100894.88;5051325;28;20088;-69
2021/10/03 00:10:38;;;;;;;41.78;22.10;;;;;;;3.76;77.15;100889.09;5051385;28;20112;-68
2021/10/03 00:13:03;;;;;;;41.85;21.73;;;;;;;3.76;76.81;100877.78;5049781;28;20041;-68
2021/10/03 00:15:34;;;;;;;40.28;20.63;;;;;;;3.79;76.37;100886.16;5051121;28;20044;-69
2021/10/03 00:18:01;;;;;;;44.28;21.58;;;;;;;3.79;76.84;100890.56;5051491;28;20139;-69
2021/10/03 00:20:27;;;;;;;39.88;21.77;;;;;;;3.75;77.49;100884.81;5050038;28;20037;-69
2021/10/03 00:22:53;;;;;;;39.92;21.73;;;;;;;3.78;77.03;100884.50;5049868;28;20077;-69
2021/10/03 00:25:20;;;;;;;48.78;21.63;;;;;;;3.78;76.99;100881.06;5049839;28;20399;-69
2021/10/03 00:27:46;;;;;;;47.50;20.77;;;;;;;3.77;76.91;100876.81;5049955;28;20037;-69
2021/10/03 00:30:15;;;;;;;39.10;20.77;;;;;;;3.76;76.71;100878.59;5050969;28;20047;-69
2021/10/03 00:32:42;;;;;;;43.00;22.38;;;;;;;3.74;77.30;100871.88;5049892;28;20131;-69
2021/10/03 00:35:08;;;;;;;41.67;21.98;;;;;;;3.73;76.63;100878.09;5051186;28;20041;-68
2021/10/03 00:37:33;;;;;;;43.15;22.02;;;;;;;3.71;77.09;100878.25;5051198;28;20509;-69
2021/10/03 00:39:59;;;;;;;42.05;20.60;;;;;;;3.69;76.41;100880.22;5050891;28;20037;-69
2021/10/03 00:42:26;;;;;;;42.03;21.15;;;;;;;3.66;77.00;100877.09;5051169;28;20128;-69
2021/10/03 00:44:51;;;;;;;40.05;20.95;;;;;;;3.65;76.86;100884.13;5051089;28;20049;-69
2021/10/03 00:47:17;;;;;;;39.03;21.20;;;;;;;3.66;76.83;100885.75;5033187;28;20702;-69
2021/10/03 00:49:44;;;;;;;38.72;22.05;;;;;;;3.67;77.19;100890.03;5050996;28;20390;-68
2021/10/03 00:52:11;;;;;;;44.72;22.00;;;;;;;3.69;76.56;100876.78;5049656;28;20056;-69
2021/10/03 00:54:37;;;;;;;44.35;21.52;;;;;;;3.70;77.18;100871.34;5050756;28;20041;-69
2021/10/03 00:57:03;;;;;;;42.65;21.75;;;;;;;3.70;77.46;100873.97;5050673;28;20043;-69
2021/10/03 00:59:30;;;;;;;42.15;21.85;;;;;;;3.71;77.57;100867.78;5050737;28;20090;-69
2021/10/03 01:01:56;;;;;;;37.92;20.70;;;;;;;3.70;76.85;100873.97;5049669;28;20033;-69
2021/10/03 01:04:22;;;;;;;38.13;21.05;;;;;;;3.69;77.53;100871.53;5050724;28;20047;-69
2021/10/03 01:06:47;;;;;;;41.28;21.30;;;;;;;3.68;76.54;100865.47;5036531;28;20090;-69
2021/10/03 01:09:13;;;;;;;42.70;22.80;;;;;;;3.66;77.51;100867.41;5054194;28;20056;-69
2021/10/03 01:11:39;;;;;;;41.70;20.35;;;;;;;3.68;77.04;100869.84;5054314;28;20040;-69
2021/10/03 01:14:05;;;;;;;38.28;20.27;;;;;;;3.68;77.21;100865.47;5054352;28;20045;-69
2021/10/03 01:16:31;;;;;;;39.05;21.88;;;;;;;3.68;77.55;100868.09;5052875;28;20048;-69
2021/10/03 01:18:57;;;;;;;41.53;21.77;;;;;;;3.68;77.62;100867.22;5053976;28;20041;-68
2021/10/03 01:21:24;;;;;;;43.95;21.75;;;;;;;3.66;77.83;100866.59;5054101;28;20068;-69
2021/10/03 01:23:53;;;;;;;41.65;22.08;;;;;;;3.64;77.67;100857.06;5052773;28;20041;-69
2021/10/03 01:26:19;;;;;;;49.05;23.02;;;;;;;3.68;77.71;100862.00;5054012;28;20041;-69
2021/10/03 01:28:44;;;;;;;38.33;20.42;;;;;;;3.68;77.49;100864.63;5054085;28;20047;-69
2021/10/03 01:31:10;;;;;;;40.75;21.65;;;;;;;3.68;77.65;100860.22;5052555;28;20481;-68
2021/10/03 01:33:37;;;;;;;43.50;22.80;;;;;;;3.64;77.03;100862.31;5053840;28;20123;-69
2021/10/03 01:36:05;;;;;;;42.72;21.38;;;;;;;3.64;76.98;100856.25;5053684;28;20037;-68
2021/10/03 01:38:35;;;;;;;40.35;20.90;;;;;;;3.64;77.35;100861.50;5052485;28;20092;-69
2021/10/03 01:41:01;;;;;;;40.67;21.38;;;;;;;3.64;77.31;100862.31;5052381;28;20040;-68
2021/10/03 01:43:27;;;;;;;38.30;20.08;;;;;;;3.63;76.87;100862.47;5052346;28;20518;-69
2021/10/03 01:45:53;;;;;;;47.47;22.80;;;;;;;3.62;78.33;100861.66;5053454;28;20120;-69
2021/10/03 01:48:21;;;;;;;43.45;21.58;;;;;;;3.63;77.99;100859.84;5035525;28;20033;-69
2021/10/03 01:50:50;;;;;;;46.42;21.48;;;;;;;3.61;77.44;100867.03;5053681;28;20045;-69
2021/10/03 01:53:24;;;;;;;40.65;20.92;;;;;;;3.62;76.93;100863.47;5053389;28;20052;-68
2021/10/03 01:55:51;;;;;;;35.28;20.08;;;;;;;3.61;76.24;100864.41;5053296;28;20172;-69
2021/10/03 01:58:19;;;;;;;40.55;21.75;;;;;;;3.60;77.53;100873.28;5053293;28;20048;-69
2021/10/03 02:00:47;;;;;;;42.20;22.17;;;;;;;3.59;77.28;100867.22;5053286;28;20502;-69
2021/10/03 02:03:13;;;;;;;42.80;21.40;;;;;;;3.60;76.90;100865.41;5051767;28;20045;-69
2021/10/03 02:05:41;;;;;;;42.42;21.40;;;;;;;3.59;77.09;100867.22;5035273;28;20183;-68
2021/10/03 02:08:08;;;;;;;40.25;22.38;;;;;;;3.59;77.44;100864.59;5052971;28;20048;-68
2021/10/03 02:10:36;;;;;;;45.85;22.70;;;;;;;3.60;77.79;100868.03;5052269;28;20080;-69
2021/10/03 02:13:03;;;;;;;42.70;22.70;;;;;;;3.60;77.20;100874.09;5052912;28;20183;-69
2021/10/03 02:15:29;;;;;;;43.65;21.70;;;;;;;3.57;78.05;100873.59;5050924;28;20052;-69
2021/10/03 02:17:55;;;;;;;45.50;23.13;;;;;;;3.54;78.37;100873.91;5051602;28;20417;-68
2021/10/03 02:20:22;;;;;;;41.50;21.48;;;;;;;3.55;77.75;100875.53;5051574;28;20176;-68
2021/10/03 02:22:49;;;;;;;42.97;21.33;;;;;;;3.55;77.91;100876.34;5053186;28;20037;-68
2021/10/03 02:25:16;;;;;;;40.45;21.55;;;;;;;3.55;77.57;100871.09;5052743;28;20131;-69
2021/10/03 02:27:42;;;;;;;48.42;21.73;;;;;;;3.50;76.37;100869.94;5035083;28;20407;-68
2021/10/03 02:30:08;;;;;;;40.15;21.42;;;;;;;3.48;76.25;100871.91;5052666;28;20051;-68
2021/10/03 02:32:37;;;;;;;38.95;21.10;;;;;;;3.49;76.69;100870.91;5053068;28;20531;-68
2021/10/03 02:35:05;;;;;;;39.38;21.15;;;;;;;3.50;76.22;100869.94;5052591;28;20051;-69
2021/10/03 02:37:31;;;;;;;48.70;22.15;;;;;;;3.45;75.80;100866.97;5052799;28;20075;-68
2021/10/03 02:39:57;;;;;;;47.33;22.95;;;;;;;3.45;76.90;100864.34;5051150;28;20056;-69
2021/10/03 02:42:23;;;;;;;38.67;21.00;;;;;;;3.44;76.65;100871.38;5052829;28;20277;-69
2021/10/03 02:44:48;;;;;;;41.67;21.90;;;;;;;3.42;76.21;100868.09;5051483;28;20525;-69
2021/10/03 02:47:14;;;;;;;46.75;21.92;;;;;;;3.39;74.40;100868.41;5051328;28;20040;-69
2021/10/03 02:49:42;;;;;;;41.85;22.45;;;;;;;3.35;75.24;100864.44;5052297;28;20040;-68
2021/10/03 02:52:09;;;;;;;52.03;23.30;;;;;;;3.29;76.66;100858.00;5051106;28;20051;-69
2021/10/03 02:54:36;;;;;;;46.03;23.85;;;;;;;3.26;77.07;100857.50;5052490;28;20053;-68
2021/10/03 02:57:05;;;;;;;50.35;24.50;;;;;;;3.23;77.80;100852.56;5050970;28;20045;-69
2021/10/03 02:59:31;;;;;;;41.15;22.30;;;;;;;3.29;78.23;100870.28;5034415;28;20044;-69
2021/10/03 03:01:57;;;;;;;50.03;22.55;;;;;;;3.25;77.28;100867.16;5050958;28;20086;-68
2021/10/03 03:04:23;;;;;;;44.70;24.42;;;;;;;3.22;78.24;100869.28;5052022;28;20040;-69
2021/10/03 03:06:48;;;;;;;67.70;39.08;;;;;;;3.18;79.72;100866.13;5052174;28;20056;-69
2021/10/03 03:09:14;;;;;;;69.07;37.53;;;;;;;3.24;79.81;100872.56;5051761;28;20068;-69
2021/10/03 03:11:40;;;;;;;52.45;26.20;;;;;;;3.23;80.28;100874.34;5050740;28;20555;-69
2021/10/03 03:14:06;;;;;;;39.95;21.98;;;;;;;3.27;80.14;100872.25;5052175;28;20502;-69
2021/10/03 03:16:31;;;;;;;39.28;21.88;;;;;;;3.27;79.64;100877.50;5051947;28;20110;-69
2021/10/03 03:18:57;;;;;;;41.30;21.38;;;;;;;3.26;78.38;100871.41;5051765;28;20094;-69
2021/10/03 03:21:23;;;;;;;38.70;21.23;;;;;;;3.25;78.40;100874.19;5034170;28;20090;-69
2021/10/03 03:23:49;;;;;;;39.05;21.20;;;;;;;3.24;78.75;100878.63;5050422;28;20568;-69
2021/10/03 03:26:14;;;;;;;37.17;19.63;;;;;;;3.23;78.39;100871.72;5050399;28;20524;-69
2021/10/03 03:28:40;;;;;;;38.40;20.25;;;;;;;3.26;79.02;100870.59;5051478;28;20075;-68
2021/10/03 03:31:06;;;;;;;40.00;19.63;;;;;;;3.26;78.50;100868.78;5051603;28;20056;-68
2021/10/03 03:33:32;;;;;;;38.50;21.13;;;;;;;3.27;78.56;100867.84;5051849;28;20049;-69
2021/10/03 03:35:58;;;;;;;46.53;22.63;;;;;;;3.27;78.61;100864.41;5033698;28;20098;-69
2021/10/03 03:38:23;;;;;;;44.05;22.40;;;;;;;3.27;78.61;100864.41;5051437;28;20053;-69
2021/10/03 03:40:50;;;;;;;49.67;21.38;;;;;;;3.23;78.59;100863.84;5051517;28;20454;-68
2021/10/03 03:43:15;;;;;;;47.67;21.85;;;;;;;3.25;78.61;100869.78;5051666;28;20049;-69
2021/10/03 03:45:41;;;;;;;46.67;21.70;;;;;;;3.29;78.77;100868.47;5051450;28;20418;-68
2021/10/03 03:48:07;;;;;;;46.22;21.50;;;;;;;3.33;78.57;100871.63;5050041;28;20147;-69
2021/10/03 03:50:33;;;;;;;44.33;22.63;;;;;;;3.36;78.06;100874.78;5051398;28;20040;-68
2021/10/03 03:53:00;;;;;;;45.88;22.55;;;;;;;3.38;77.48;100874.59;5051755;28;20056;-68
2021/10/03 03:55:26;;;;;;;42.88;22.77;;;;;;;3.41;77.89;100879.53;5051178;28;20080;-69
2021/10/03 03:57:52;;;;;;;47.33;22.33;;;;;;;3.44;77.47;100873.97;5049822;28;20063;-68
2021/10/03 04:00:19;;;;;;;44.97;22.33;;;;;;;3.42;77.28;100874.16;5051258;28;20052;-69
2021/10/03 04:02:45;;;;;;;43.50;21.88;;;;;;;3.44;77.08;100879.22;5051630;28;20486;-68
2021/10/03 04:05:11;;;;;;;46.70;22.17;;;;;;;3.40;77.21;100868.22;5051211;28;20056;-68
2021/10/03 04:07:37;;;;;;;44.28;23.05;;;;;;;3.38;77.44;100883.31;5051439;28;20041;-68
2021/10/03 04:10:04;;;;;;;43.55;22.48;;;;;;;3.42;77.81;100879.41;5051219;28;20088;-68
2021/10/03 04:12:30;;;;;;;44.25;22.85;;;;;;;3.46;76.97;100873.84;5051546;28;20095;-68
2021/10/03 04:14:55;;;;;;;51.83;24.55;;;;;;;3.47;76.59;100868.47;5049856;28;20045;-68
2021/10/03 04:17:21;;;;;;;53.28;25.20;;;;;;;3.55;75.70;100872.91;5051377;28;20067;-68
2021/10/03 04:19:47;;;;;;;52.50;22.67;;;;;;;3.58;75.27;100878.66;5051349;28;20076;-69
2021/10/03 04:22:13;;;;;;;48.40;25.08;;;;;;;3.50;75.46;100878.63;5050022;28;20514;-68
2021/10/03 04:24:39;;;;;;;52.53;24.55;;;;;;;3.54;74.96;100874.72;5050994;28;20044;-69
2021/10/03 04:27:04;;;;;;;51.38;27.20;;;;;;;3.59;75.14;100867.22;5049917;28;20053;-68
2021/10/03 04:29:30;;;;;;;57.22;23.73;;;;;;;3.66;73.61;100871.84;5051127;28;20075;-68
2021/10/03 04:31:56;;;;;;;55.25;25.88;;;;;;;3.73;74.76;100870.22;5050841;28;20063;-68
2021/10/03 04:34:22;;;;;;;48.47;23.02;;;;;;;3.72;73.25;100864.16;5049758;28;20127;-69
2021/10/03 04:36:47;;;;;;;45.67;23.63;;;;;;;3.75;73.07;100866.47;5051102;28;20066;-68
2021/10/03 04:39:13;;;;;;;54.60;24.00;;;;;;;3.78;72.83;100868.78;5051882;28;20044;-68
2021/10/03 04:41:39;;;;;;;51.95;24.10;;;;;;;3.77;72.88;100868.94;5054878;28;20033;-68
2021/10/03 04:44:04;;;;;;;58.30;24.27;;;;;;;3.74;72.99;100864.03;5054608;28;20465;-68
2021/10/03 04:46:30;;;;;;;48.15;24.40;;;;;;;3.72;73.63;100872.03;5054860;28;20051;-68
2021/10/03 04:48:56;;;;;;;50.92;23.88;;;;;;;3.70;73.70;100865.28;5055101;28;20079;-68
2021/10/03 04:51:21;;;;;;;51.65;24.45;;;;;;;3.75;74.01;100869.09;5054745;28;20486;-68
2021/10/03 04:53:47;;;;;;;44.58;22.65;;;;;;;3.86;73.33;100883.75;5054824;28;20079;-69
2021/10/03 04:56:13;;;;;;;55.13;24.15;;;;;;;3.88;72.99;100873.91;5053148;28;20482;-68
2021/10/03 04:58:39;;;;;;;47.38;24.17;;;;;;;3.85;73.80;100884.69;5054427;28;20128;-68
2021/10/03 05:01:04;;;;;;;48.85;24.23;;;;;;;3.86;73.58;100883.75;5054638;28;20383;-69
2021/10/03 05:03:33;;;;;;;42.47;23.17;;;;;;;3.92;73.06;100877.03;5054627;28;20506;-69
2021/10/03 05:05:59;;;;;;;46.28;24.30;;;;;;;4.00;73.48;100879.69;5036294;28;20041;-70
2021/10/03 05:08:24;;;;;;;41.67;21.60;;;;;;;4.07;73.85;100878.91;5054026;28;20060;-68
2021/10/03 05:10:50;;;;;;;46.17;22.70;;;;;;;4.17;73.72;100877.94;5054291;28;20075;-69
2021/10/03 05:13:16;;;;;;;41.97;22.40;;;;;;;4.26;73.98;100890.94;5054333;28;20079;-69
2021/10/03 05:15:43;;;;;;;46.65;22.98;;;;;;;4.40;72.99;100884.25;5054132;28;20048;-69
2021/10/03 05:18:09;;;;;;;48.22;23.35;;;;;;;4.52;72.85;100882.16;5053888;28;20555;-69
2021/10/03 05:20:35;;;;;;;40.50;23.10;;;;;;;4.62;73.38;100887.25;5053786;28;20045;-69
2021/10/03 05:23:01;;;;;;;45.75;23.05;;;;;;;4.71;73.40;100879.25;5052608;28;20090;-69
2021/10/03 05:25:26;;;;;;;45.90;22.63;;;;;;;4.76;74.10;100881.34;5054067;28;20103;-69
2021/10/03 05:27:52;;;;;;;50.60;23.23;;;;;;;4.82;75.32;100887.78;5054122;28;20505;-69
2021/10/03 05:30:18;;;;;;;45.08;23.67;;;;;;;4.83;76.17;100886.81;5052346;28;20048;-69
2021/10/03 05:32:45;;;;;;;39.92;21.25;;;;;;;4.91;74.87;100890.25;5052269;28;20033;-69
2021/10/03 05:35:11;;;;;;;42.80;22.52;;;;;;;5.07;75.17;100880.72;5052488;28;20093;-69
2021/10/03 05:37:37;;;;;;;41.60;21.60;;;;;;;5.18;74.43;100880.41;5053934;28;20095;-68
2021/10/03 05:40:05;;;;;;;41.65;19.50;;;;;;;5.36;73.21;100883.66;5052194;28;20045;-69
2021/10/03 05:42:30;;;;;;;31.65;18.33;;;;;;;5.49;72.66;100888.41;5052638;28;20047;-69
2021/10/03 05:44:56;;;;;;;38.33;18.92;;;;;;;5.63;73.16;100894.78;5053451;28;20041;-69
2021/10/03 05:47:22;;;;;;;39.38;20.48;;;;;;;5.72;73.63;100887.69;5053817;28;20087;-69
2021/10/03 05:49:48;;;;;;;37.10;18.48;;;;;;;5.83;71.80;100885.53;5053400;28;20408;-69
2021/10/03 05:52:14;;;;;;;36.40;18.60;;;;;;;5.90;72.53;100883.84;5053746;28;20071;-69
2021/10/03 05:54:39;;;;;;;33.83;18.27;;;;;;;6.04;71.63;100886.81;5052113;28;20510;-68
2021/10/03 05:57:05;;;;;;;40.70;17.92;;;;;;;6.10;71.71;100876.41;5053549;28;20069;-68
2021/10/03 05:59:31;;;;;;;39.08;18.35;;;;;;;6.17;71.26;100879.16;5053229;28;20057;-69
2021/10/03 06:01:56;;;;;;;36.75;17.17;;;;;;;6.25;71.55;100881.75;5053530;28;20076;-69
2021/10/03 06:04:22;;;;;;;33.05;17.88;;;;;;;6.26;69.63;100879.94;5053103;28;20045;-69
2021/10/03 06:06:48;;;;;;;29.63;16.20;;;;;;;6.34;69.56;100883.34;5053506;28;20467;-69
2021/10/03 06:09:14;;;;;;;31.38;16.10;;;;;;;6.42;70.11;100882.50;5052872;28;20061;-69
2021/10/03 06:11:39;;;;;;;30.90;15.85;;;;;;;6.52;69.20;100887.53;5051940;28;20087;-69
2021/10/03 06:14:05;;;;;;;31.98;15.25;;;;;;;6.62;68.61;100882.03;5053161;28;20052;-69
2021/10/03 06:16:31;;;;;;;33.28;16.38;;;;;;;6.63;67.34;100883.69;5053202;28;20052;-69
2021/10/03 06:18:57;;;;;;;29.33;15.73;;;;;;;6.69;67.83;100877.72;5051675;28;20049;-69
2021/10/03 06:21:25;;;;;;;33.13;15.93;;;;;;;6.77;68.37;100881.13;5052934;28;20037;-69
2021/10/03 06:23:51;;;;;;;30.77;15.20;;;;;;;6.86;68.66;100881.06;5051570;28;20044;-69
2021/10/03 06:26:18;;;;;;;28.27;15.90;;;;;;;6.86;68.69;100878.44;5051751;28;20049;-69
2021/10/03 06:28:44;;;;;;;33.50;16.98;;;;;;;6.93;67.62;100880.16;5051429;28;20079;-69
2021/10/03 06:31:10;;;;;;;33.08;16.73;;;;;;;7.00;67.19;100883.75;5052568;28;20081;-69
2021/10/03 06:33:37;;;;;;;34.50;16.60;;;;;;;7.07;67.23;100883.88;5034879;28;20057;-68
2021/10/03 06:36:04;;;;;;;30.45;16.23;;;;;;;7.03;67.94;100887.84;5051172;28;20398;-69
2021/10/03 06:38:30;;;;;;;35.03;17.63;;;;;;;7.07;68.45;100886.50;5051255;28;20052;-69
2021/10/03 06:40:55;;;;;;;34.47;18.05;;;;;;;7.13;68.05;100883.16;5034811;28;20086;-69
2021/10/03 06:43:21;;;;;;;34.40;17.83;;;;;;;7.13;67.55;100891.06;5051150;28;20055;-69
2021/10/03 06:45:47;;;;;;;34.95;17.23;;;;;;;7.07;67.55;100883.88;5051139;28;20131;-69
2021/10/03 06:48:13;;;;;;;32.67;17.55;;;;;;;7.15;67.35;100896.97;5052291;28;20088;-69
2021/10/03 06:50:39;;;;;;;33.15;17.33;;;;;;;7.24;66.43;100889.81;5052274;28;20123;-69
2021/10/03 06:53:05;;;;;;;30.83;16.17;;;;;;;7.27;65.97;100892.91;5052363;28;20045;-69
2021/10/03 06:55:31;;;;;;;25.33;15.18;;;;;;;7.31;65.44;100887.28;5052142;28;20052;-69
2021/10/03 06:57:59;;;;;;;29.52;14.63;;;;;;;7.35;64.93;100891.19;5050977;28;20044;-69
2021/10/03 07:00:25;;;;;;;27.90;14.98;;;;;;;7.39;64.92;100892.50;5050777;28;20045;-69
2021/10/03 07:02:51;;;;;;;28.23;14.57;;;;;;;7.49;64.18;100888.56;5050281;28;20098;-69
2021/10/03 07:05:17;;;;;;;32.53;16.65;;;;;;;7.56;65.24;100888.69;5052018;28;20049;-69
2021/10/03 07:07:43;;;;;;;32.10;15.50;;;;;;;7.59;64.32;100890.13;5034036;28;20048;-69
2021/10/03 07:10:09;;;;;;;29.30;15.63;;;;;;;7.60;64.66;100894.41;5051007;28;20061;-69
2021/10/03 07:12:35;;;;;;;27.67;15.52;;;;;;;7.67;64.17;100887.41;5049914;28;20033;-69
2021/10/03 07:15:00;;;;;;;29.20;15.52;;;;;;;7.73;63.61;100884.88;5050910;28;20060;-69
2021/10/03 07:17:26;;;;;;;32.13;15.73;;;;;;;7.81;62.99;100891.06;5051237;28;20198;-69
2021/10/03 07:19:52;;;;;;;33.78;15.10;;;;;;;7.76;63.01;100886.31;5050961;28;20051;-68
2021/10/03 07:22:18;;;;;;;29.48;16.30;;;;;;;7.75;63.07;100882.03;5049829;28;20068;-68
2021/10/03 07:24:43;;;;;;;31.52;15.35;;;;;;;7.74;63.40;100885.69;5049490;28;20414;-68
2021/10/03 07:27:09;;;;;;;29.70;16.38;;;;;;;7.78;63.22;100884.31;5051005;28;20041;-68
2021/10/03 07:29:36;;;;;;;28.52;15.32;;;;;;;7.88;62.56;100887.53;5050768;28;20118;-68
2021/10/03 07:32:06;;;;;;;29.10;14.57;;;;;;;7.92;62.53;100891.41;5051140;28;20670;-69
2021/10/03 07:34:32;;;;;;;;;;;;;;;7.94;61.86;100892.06;5050268;28;20135;-69
2021/10/03 07:36:58;;;;;;;31.05;15.00;;;;;;;7.94;62.33;100878.88;5049504;28;19921;-69
2021/10/03 07:39:24;;;;;;;30.20;16.00;;;;;;;7.95;61.88;100884.97;5050608;28;20049;-68
2021/10/03 07:41:51;;;;;;;29.50;14.38;;;;;;;8.00;62.57;100876.47;5051010;28;20045;-68
2021/10/03 07:44:17;;;;;;;29.27;15.52;;;;;;;8.02;61.53;100877.13;5050652;28;20490;-68
2021/10/03 07:46:43;;;;;;;27.55;14.68;;;;;;;8.03;60.98;100874.31;5050837;28;20497;-68
2021/10/03 07:49:09;;;;;;;27.88;14.20;;;;;;;8.07;60.65;100877.38;5050434;28;20053;-68
2021/10/03 07:51:35;;;;;;;31.30;15.60;;;;;;;8.09;61.08;100885.91;5049418;28;20047;-69
2021/10/03 07:54:00;;;;;;;29.20;15.25;;;;;;;8.10;61.17;100874.38;5050371;28;20126;-68
2021/10/03 07:56:26;;;;;;;29.42;14.68;;;;;;;8.17;60.03;100870.78;5050438;28;20055;-68
2021/10/03 07:58:52;;;;;;;26.45;14.57;;;;;;;8.25;59.68;100879.63;5049189;28;20052;-68
2021/10/03 08:01:18;;;;;;;30.15;14.25;;;;;;;8.27;59.53;100881.09;5049169;28;20048;-68
2021/10/03 08:03:44;;;;;;;25.25;13.98;;;;;;;8.31;59.76;100876.25;5050566;28;20045;-69
2021/10/03 08:06:10;;;;;;;27.92;13.77;;;;;;;8.38;59.57;100887.69;5050247;28;20510;-69
2021/10/03 08:08:36;;;;;;;24.85;13.55;;;;;;;8.44;59.18;100883.53;5004509;28;1321060;-68
2021/10/03 08:11:01;;;;;;;27.48;14.15;;;;;;;8.44;59.41;100883.53;5051183;28;20572;-69
2021/10/03 08:13:27;;;;;;;31.23;13.60;;;;;;;8.49;59.05;100874.03;5033233;28;20052;-68
2021/10/03 08:15:53;;;;;;;26.95;13.70;;;;;;;8.55;59.20;100883.03;5054080;28;20050;-68
2021/10/03 08:18:19;;;;;;;31.13;14.95;;;;;;;8.56;58.66;100874.94;5055114;28;20098;-68
2021/10/03 08:20:45;;;;;;;28.13;14.27;;;;;;;8.63;58.49;100878.44;5053991;28;20045;-69
2021/10/03 08:23:11;;;;;;;28.50;13.73;;;;;;;8.67;59.02;100873.59;5055303;28;20494;-69
2021/10/03 08:25:37;;;;;;;30.25;14.40;;;;;;;8.72;58.72;100887.09;5054957;28;20629;-68
2021/10/03 08:28:03;;;;;;;31.90;14.55;;;;;;;8.77;57.81;100879.41;5053624;28;20128;-69
2021/10/03 08:30:28;;;;;;;29.55;14.15;;;;;;;8.89;58.43;100886.84;5053711;28;20040;-69
2021/10/03 08:32:54;;;;;;;25.08;13.60;;;;;;;8.92;58.10;100889.91;5053720;28;20445;-69
2021/10/03 08:35:20;;;;;;;25.02;13.57;;;;;;;8.95;57.14;100880.78;5055120;28;20052;-69
2021/10/03 08:37:46;;;;;;;27.38;13.95;;;;;;;9.00;57.84;100881.03;5055113;28;20049;-68
2021/10/03 08:40:13;;;;;;;33.13;14.10;;;;;;;9.00;56.55;100873.09;5054793;28;20186;-69
2021/10/03 08:42:39;;;;;;;27.90;13.63;;;;;;;9.01;57.11;100875.56;5053690;28;20506;-68
2021/10/03 08:45:06;;;;;;;23.83;11.98;;;;;;;9.02;56.40;100884.31;5054723;28;20578;-68
2021/10/03 08:47:37;;;;;;;21.73;11.82;;;;;;;9.03;55.56;100883.28;5055009;28;20033;-69
2021/10/03 08:50:09;;;;;;;27.58;12.13;;;;;;;9.05;55.81;100890.03;5053290;28;20040;-69
2021/10/03 08:52:36;;;;;;;21.45;11.73;;;;;;;9.05;56.20;100894.50;5054956;28;20048;-68
2021/10/03 08:55:03;;;;;;;24.60;12.15;;;;;;;9.05;56.16;100887.38;5053571;28;20553;-69
2021/10/03 08:57:29;;;;;;;19.92;11.88;;;;;;;9.12;55.39;100898.03;5054716;28;20052;-68
2021/10/03 09:00:07;;;;;;;25.33;12.55;;;;;;;9.17;55.87;100897.44;5054657;28;20041;-68
2021/10/03 09:03:06;;;;;;;22.13;11.50;;;;;;;9.18;55.29;100893.81;5054709;28;20040;-67
2021/10/03 09:05:37;;;;;;;21.48;11.38;;;;;;;9.23;55.04;100891.41;5054564;28;20333;-68
2021/10/03 09:08:08;;;;;;;23.63;12.35;;;;;;;9.25;55.31;100895.47;5053039;28;20124;-69
2021/10/03 09:11:00;;;;;;;21.10;11.55;;;;;;;9.22;55.34;100895.06;5054247;28;20045;-69
2021/10/03 09:13:31;;;;;;;22.33;11.65;;;;;;;9.29;55.14;100888.81;5052844;28;20049;-68
2021/10/03 09:16:06;;;;;;;23.23;12.02;;;;;;;9.34;54.60;100882.94;5036294;28;20548;-68
2021/10/03 09:18:37;;;;;;;21.73;11.38;;;;;;;9.39;54.21;100885.81;5054012;28;20091;-68
2021/10/03 09:21:03;;;;;;;22.40;11.75;;;;;;;9.44;55.24;100890.53;5052447;28;20080;-68
2021/10/03 09:23:29;;;;;;;25.77;11.68;;;;;;;9.43;55.32;100888.91;5053882;28;20065;-68
2021/10/03 09:25:55;;;;;;;22.30;11.88;;;;;;;9.42;55.04;100887.28;5053740;28;20406;-69
2021/10/03 09:28:20;;;;;;;25.20;10.93;;;;;;;9.43;54.91;100892.34;5053760;28;20033;-68
2021/10/03 09:30:54;;;;;;;22.33;11.70;;;;;;;9.44;55.06;100890.53;5053733;28;20048;-68
2021/10/03 09:33:20;;;;;;;24.13;11.77;;;;;;;9.43;54.33;100883.59;5052587;28;20119;-69
2021/10/03 09:36:00;;;;;;;20.63;10.85;;;;;;;9.45;53.92;100895.63;5053628;28;20032;-69
2021/10/03 09:38:27;;;;;;;23.52;12.93;;;;;;;9.48;55.03;100891.78;5053580;28;20053;-69
2021/10/03 09:41:20;;;;;;;21.17;12.02;;;;;;;9.52;55.68;100898.31;5052472;28;20076;-69
2021/10/03 09:44:10;;;;;;;29.10;13.98;;;;;;;9.60;55.31;100892.88;5052290;28;20520;-69
2021/10/03 09:46:45;;;;;;;29.92;13.45;;;;;;;9.63;55.16;100902.28;5044994;28;20137;-69
2021/10/03 09:49:13;;;;;;;31.65;14.23;;;;;;;9.60;55.61;100900.03;5053435;28;20041;-69
2021/10/03 09:51:41;;;;;;;25.48;13.05;;;;;;;9.65;54.69;100898.44;5052275;28;20135;-69
2021/10/03 09:54:08;;;;;;;29.33;13.70;;;;;;;9.64;55.19;100904.72;5053160;28;20037;-69
2021/10/03 09:56:34;;;;;;;26.20;13.75;;;;;;;9.64;55.04;100888.81;5053458;28;20478;-68
2021/10/03 09:59:01;;;;;;;25.30;13.80;;;;;;;9.65;55.39;100895.78;5052028;28;20051;-69
2021/10/03 10:01:31;;;;;;;26.65;13.80;;;;;;;9.65;55.53;100892.31;5053454;28;20048;-69
2021/10/03 10:03:57;;;;;;;23.83;13.13;;;;;;;9.66;55.63;100892.09;5053398;28;20123;-69
2021/10/03 10:06:23;;;;;;;27.00;14.20;;;;;;;9.63;55.79;100886.41;5053184;28;20542;-69
2021/10/03 10:08:53;;;;;;;32.42;13.23;;;;;;;9.65;56.15;100889.69;5051854;28;20152;-69
2021/10/03 10:12:03;;;;;;;28.13;14.60;;;;;;;9.74;55.65;100888.50;5052952;28;20528;-69
2021/10/03 10:14:35;;;;;;;25.30;13.85;;;;;;;9.77;55.10;100885.47;5053084;28;20430;-69
2021/10/03 10:17:26;;;;;;;35.35;14.35;;;;;;;9.86;55.90;100891.41;5053204;28;20055;-69
2021/10/03 10:19:55;;;;;;;29.50;15.07;;;;;;;9.83;55.42;100876.72;5052986;28;20094;-68
2021/10/03 10:22:35;;;;;;;31.30;15.68;;;;;;;9.90;55.42;100879.41;5052835;28;20051;-69
2021/10/03 10:25:16;;;;;;;30.83;15.10;;;;;;;9.90;54.79;100871.47;5051619;28;20045;-70
2021/10/03 10:27:45;;;;;;;26.52;15.02;;;;;;;9.85;55.21;100874.69;5053270;28;20033;-69
2021/10/03 10:30:15;;;;;;;34.13;14.82;;;;;;;9.85;55.32;100874.69;5052979;28;20063;-69
2021/10/03 10:32:56;;;;;;;37.10;14.93;;;;;;;9.94;55.13;100878.00;5052656;28;20040;-69
2021/10/03 10:35:22;;;;;;;39.47;15.65;;;;;;;9.95;54.86;100875.16;5052547;28;20049;-69
2021/10/03 10:37:51;;;;;;;36.92;16.00;;;;;;;10.01;54.55;100870.91;5052123;28;20494;-69
2021/10/03 10:40:23;;;;;;;37.15;16.52;;;;;;;10.05;55.27;100866.84;5052871;28;20041;-68
2021/10/03 10:43:04;;;;;;;32.72;15.75;;;;;;;10.18;54.26;100869.56;5051227;28;20048;-69
2021/10/03 10:45:36;;;;;;;29.88;15.55;;;;;;;10.19;55.00;100860.56;5051425;28;20098;-68
2021/10/03 10:48:08;;;;;;;32.83;17.10;;;;;;;10.15;55.02;100863.84;5052268;28;20098;-68
2021/10/03 10:50:43;;;;;;;35.67;17.25;;;;;;;10.18;55.44;100877.50;5052561;28;20041;-68
2021/10/03 10:53:21;;;;;;;35.03;16.88;;;;;;;10.22;55.43;100867.31;5052213;28;20087;-68
2021/10/03 10:56:09;;;;;;;31.63;16.80;;;;;;;10.24;54.43;100866.09;5052185;28;20055;-68
2021/10/03 10:58:59;;;;;;;31.65;16.80;;;;;;;10.30;54.15;100864.53;5050927;28;20045;-68
2021/10/03 11:01:30;;;;;;;33.85;17.80;;;;;;;10.39;54.08;100862.50;5052371;28;20123;-68
2021/10/03 11:03:59;;;;;;;35.35;17.20;;;;;;;10.43;54.15;100861.09;5052328;28;20052;-69
2021/10/03 11:06:27;;;;;;;33.20;16.88;;;;;;;10.45;54.39;100859.88;5052360;28;20394;-69
2021/10/03 11:08:56;;;;;;;33.05;17.00;;;;;;;10.41;54.76;100852.50;5050593;28;20060;-69
2021/10/03 11:11:23;;;;;;;33.33;17.23;;;;;;;10.33;54.29;100856.19;5052216;28;20064;-69
2021/10/03 11:13:50;;;;;;;35.60;16.52;;;;;;;10.32;54.18;100846.56;5034065;28;20138;-69
2021/10/03 11:16:33;;;;;;;32.55;16.77;;;;;;;10.38;54.58;100843.16;5051902;28;20341;-69
2021/10/03 11:19:14;;;;;;;33.22;16.52;;;;;;;10.38;54.32;100845.81;5050628;28;20099;-68